createdAt,value
2019-04-23T00:01:19.905Z,19.10
2019-04-23T00:06:19.099Z,19.00
2019-04-23T00:11:25.552Z,19.00
2019-04-23T00:16:35.971Z,19.00
2019-04-23T00:21:45.933Z,18.90
2019-04-23T00:26:51.871Z,18.90
2019-04-23T00:31:59.605Z,18.80
2019-04-23T00:37:12.868Z,18.70
2019-04-23T00:42:15.118Z,18.60
2019-04-23T00:47:23.137Z,18.50
2019-04-23T00:52:26.393Z,18.40
2019-04-23T00:57:43.449Z,18.40
2019-04-23T01:02:38.608Z,18.30
2019-04-23T01:07:44.447Z,18.30
2019-04-23T01:12:51.425Z,18.20
2019-04-23T01:18:02.186Z,18.10
2019-04-23T01:22:42.545Z,18.00
2019-04-23T01:28:23.103Z,17.90
2019-04-23T01:33:36.263Z,17.90
2019-04-23T01:38:33.578Z,17.90
2019-04-23T01:48:46.843Z,17.70
2019-04-23T01:53:50.082Z,17.60
2019-04-23T01:59:02.509Z,17.50
2019-04-23T02:04:10.111Z,17.40
2019-04-23T02:09:15.167Z,17.40
2019-04-23T02:14:20.851Z,17.40
2019-04-23T02:19:29.353Z,17.40
2019-04-23T02:24:34.049Z,17.30
2019-04-23T02:29:55.732Z,17.30
2019-04-23T02:34:57.867Z,17.10
2019-04-23T02:45:02.130Z,17.00
2019-04-23T02:50:34.931Z,16.90
2019-04-23T03:00:27.658Z,16.80
2019-04-23T03:05:36.385Z,16.80
2019-04-23T03:10:41.909Z,16.80
2019-04-23T03:26:45.390Z,16.70
2019-04-23T03:37:08.984Z,16.60
2019-04-23T03:41:50.288Z,16.60
2019-04-23T03:46:51.805Z,16.60
2019-04-23T04:07:27.863Z,16.60
2019-04-23T04:12:30.036Z,16.60
2019-04-23T04:27:56.332Z,16.60
2019-04-23T04:38:25.408Z,16.10
2019-04-23T04:43:22.485Z,16.30
2019-04-23T04:48:09.815Z,16.20
2019-04-23T04:58:32.289Z,15.90
2019-04-23T05:03:28.540Z,15.80
2019-04-23T05:13:55.000Z,15.70
2019-04-23T05:19:02.702Z,15.70
2019-04-23T05:24:02.386Z,15.80
2019-04-23T05:29:15.179Z,15.80
2019-04-23T05:34:10.623Z,15.80
2019-04-23T05:44:31.213Z,15.90
2019-04-23T05:49:32.592Z,15.90
2019-04-23T05:54:43.212Z,16.00
2019-04-23T06:00:04.214Z,16.10
2019-04-23T06:04:51.156Z,16.00
2019-04-23T06:09:59.468Z,16.00
2019-04-23T06:15:05.174Z,16.10
2019-04-23T06:25:33.818Z,16.30
2019-04-23T06:30:26.593Z,16.40
2019-04-23T06:35:32.007Z,16.40
2019-04-23T06:40:43.540Z,16.40
2019-04-23T06:45:45.577Z,16.50
2019-04-23T06:50:58.183Z,16.40
2019-04-23T06:56:03.839Z,16.60
2019-04-23T07:06:26.605Z,16.80
2019-04-23T07:11:33.886Z,16.90
2019-04-23T07:16:22.818Z,17.00
2019-04-23T07:21:30.423Z,17.00
2019-04-23T07:26:40.434Z,17.10
2019-04-23T07:31:51.505Z,17.20
2019-04-23T07:36:55.752Z,17.20
2019-04-23T07:42:24.908Z,17.30
2019-04-23T07:47:40.100Z,17.40
2019-04-23T07:53:01.915Z,17.50
2019-04-23T07:58:10.151Z,17.60
2019-04-23T08:03:13.543Z,17.70
2019-04-23T08:08:24.431Z,17.80
2019-04-23T08:13:28.024Z,17.80
2019-04-23T08:18:27.614Z,17.80
2019-04-23T08:24:08.686Z,17.90
2019-04-23T08:29:24.079Z,18.00
2019-04-23T08:34:28.001Z,18.10
2019-04-23T08:39:30.485Z,18.20
2019-04-23T08:45:18.574Z,18.30
2019-04-23T08:50:12.827Z,18.40
2019-04-23T08:55:21.042Z,18.60
2019-04-23T09:00:31.462Z,18.70
2019-04-23T09:05:38.691Z,18.90
2019-04-23T09:10:50.110Z,19.00
2019-04-23T09:15:49.885Z,19.20
2019-04-23T09:20:49.750Z,19.30
2019-04-23T09:25:57.521Z,19.40
2019-04-23T09:32:05.230Z,19.70
2019-04-23T09:36:59.809Z,19.90
2019-04-23T09:42:32.348Z,20.00
2019-04-23T09:47:55.242Z,20.10
2019-04-23T09:53:06.721Z,20.30
2019-04-23T09:58:03.137Z,20.50
2019-04-23T10:03:01.537Z,20.70
2019-04-23T10:08:01.640Z,20.90
2019-04-23T10:12:58.170Z,21.10
2019-04-23T10:18:04.612Z,21.30
2019-04-23T10:23:10.345Z,21.50
2019-04-23T10:28:38.189Z,21.70
2019-04-23T10:33:44.017Z,21.90
2019-04-23T10:38:59.754Z,22.20
2019-04-23T10:44:02.856Z,22.40
2019-04-23T10:49:53.324Z,22.60
2019-04-23T10:55:22.349Z,22.80
2019-04-23T11:00:04.511Z,23.00
2019-04-23T11:05:35.881Z,23.10
2019-04-23T11:10:21.988Z,23.20
2019-04-23T11:20:45.433Z,23.80
2019-04-23T11:26:01.328Z,24.10
2019-04-23T11:30:45.017Z,24.40
2019-04-23T11:41:12.645Z,24.80
2019-04-23T11:46:34.089Z,25.00
2019-04-23T12:07:17.621Z,25.80
2019-04-23T12:12:23.531Z,26.20
2019-04-23T12:18:15.069Z,26.30
2019-04-23T12:22:36.835Z,26.50
2019-04-23T12:27:33.498Z,26.80
2019-04-23T12:32:59.297Z,27.10
2019-04-23T12:43:17.472Z,27.60
2019-04-23T12:48:35.106Z,27.80
2019-04-23T12:58:34.122Z,27.80
2019-04-23T13:03:39.268Z,27.70
2019-04-23T13:09:18.278Z,27.90
2019-04-23T13:14:00.467Z,28.00
2019-04-23T13:19:16.836Z,27.80
2019-04-23T13:24:28.837Z,27.70
2019-04-23T13:29:43.504Z,27.80
2019-04-23T13:34:48.343Z,27.90
2019-04-23T13:39:45.432Z,28.00
2019-04-23T13:44:59.906Z,28.10
2019-04-23T13:50:07.537Z,28.00
2019-04-23T13:55:09.228Z,27.80
2019-04-23T14:00:19.956Z,27.80
2019-04-23T14:05:42.345Z,27.50
2019-04-23T14:16:03.610Z,27.20
2019-04-23T14:21:14.291Z,27.40
2019-04-23T14:26:26.219Z,27.40
2019-04-23T14:31:16.687Z,27.60
2019-04-23T14:41:31.930Z,27.90
2019-04-23T14:51:54.651Z,27.90
2019-04-23T14:57:09.668Z,27.80
2019-04-23T15:02:07.464Z,27.50
2019-04-23T15:07:15.587Z,27.30
2019-04-23T15:17:23.651Z,27.20
2019-04-23T15:22:39.126Z,27.20
2019-04-23T15:58:28.136Z,27.00
2019-04-23T16:02:59.263Z,27.00
2019-04-23T16:08:39.011Z,27.00
2019-04-23T16:13:53.384Z,27.00
2019-04-23T16:19:07.204Z,26.90
2019-04-23T16:24:13.495Z,26.70
2019-04-23T16:29:46.381Z,26.50
2019-04-23T16:34:40.799Z,26.30
2019-04-23T16:40:03.383Z,26.10
2019-04-23T16:50:19.382Z,25.70
2019-04-23T16:55:34.510Z,25.50
2019-04-23T17:00:41.211Z,25.20
2019-04-23T17:11:13.049Z,24.80
2019-04-23T17:16:16.701Z,24.70
2019-04-23T17:21:13.352Z,24.70
2019-04-23T17:26:20.603Z,24.60
2019-04-23T17:31:35.155Z,24.50
2019-04-23T17:37:00.646Z,24.40
2019-04-23T17:42:27.408Z,24.40
2019-04-23T17:47:43.809Z,24.40
2019-04-23T17:52:53.163Z,24.20
2019-04-23T17:58:01.707Z,24.20
2019-04-23T18:13:20.967Z,24.00
2019-04-23T18:18:33.582Z,23.90
2019-04-23T18:23:34.476Z,23.80
2019-04-23T18:28:48.092Z,23.60
2019-04-23T18:39:06.762Z,23.40
2019-04-23T18:49:28.123Z,23.20
2019-04-23T18:54:28.431Z,23.20
2019-04-23T18:59:46.400Z,23.20
2019-04-23T19:15:36.950Z,23.00
2019-04-23T19:20:56.157Z,22.90
2019-04-23T19:31:20.562Z,22.80
2019-04-23T19:36:17.165Z,22.80
2019-04-23T19:41:25.605Z,22.80
2019-04-23T19:46:50.520Z,22.60
2019-04-23T20:02:00.465Z,22.50
2019-04-23T20:07:12.347Z,22.50
2019-04-23T20:12:06.356Z,22.40
2019-04-23T20:17:31.772Z,22.30
2019-04-23T20:22:40.161Z,22.30
2019-04-23T20:27:26.371Z,22.20
2019-04-23T20:42:52.636Z,22.00
2019-04-23T20:53:03.335Z,21.80
2019-04-23T20:58:21.270Z,21.80
2019-04-23T21:03:37.643Z,21.70
2019-04-23T21:08:53.829Z,21.70
2019-04-23T21:14:01.978Z,21.70
2019-04-23T21:18:49.824Z,21.60
2019-04-23T21:23:53.231Z,21.50
2019-04-23T21:29:09.609Z,21.50
2019-04-23T21:34:46.439Z,21.50
2019-04-23T21:44:52.866Z,21.40
2019-04-23T21:50:11.958Z,21.30
2019-04-23T21:55:14.994Z,21.30
2019-04-23T22:00:19.029Z,21.30
2019-04-23T23:15:44.928Z,20.60
2019-04-23T23:25:53.977Z,20.60
2019-04-23T23:36:05.896Z,20.60
2019-04-23T23:41:28.795Z,20.70
2019-04-23T23:46:29.365Z,20.60
2019-04-23T23:51:29.110Z,20.50
2019-04-23T23:56:30.415Z,20.50
